Impacts METAR Board INFO
IDs:

KDFW - Dallas-Ft Worth Intl, TX, US

Updated at: 2200 UTC 21 Jan 2018
Potential Impact None Slight Moderate High
Time21/10Z 21/11Z 21/12Z 21/13Z 21/14Z 21/15Z 21/16Z 21/17Z 21/18Z 21/19Z 21/20Z 21/21Z 21/22Z
VIS10 10 10 10 10 10 10 10 10 10 10 10 10
CIG14 16 26 17 15 15 18 25 43 32 75 38 39
CoverOVCBKNBKNBKNBKNBKNBKNOVCOVCOVCBKNBKNOVC
FltCatMVFRMVFRMVFRMVFRMVFRMVFRMVFRMVFRVFRVFRVFRVFRVFR
WX-------------------RA----VCTS
WDir190190190170170170180190190210200200180
WSpd17 15 14 13 13 15 20 20 21 19 19 20 17
WGst-- -- -- -- -- 21 26 30 29 25 -- -- 28
Raw hourly METARs
KDFW 210953Z 19017KT 10SM OVC014 18/15 A2987 RMK AO2 PK WND 19027/0932 SLP108 T01830150
KDFW 211053Z 19015KT 10SM BKN016 BKN023 18/15 A2988 RMK AO2 PK WND 19026/1002 SLP112 T01830150
KDFW 211153Z 19014KT 10SM FEW017 BKN026 18/14 A2988 RMK AO2 PK WND 19027/1111 SLP111 T01830144 10183 20178 56008
KDFW 211253Z 17013KT 10SM BKN017 BKN046 18/16 A2987 RMK AO2 SLP109 T01830156
KDFW 211353Z 17013KT 10SM BKN015 BKN045 BKN250 18/16 A2987 RMK AO2 SLP108 T01830156
KDFW 211504Z 17015G21KT 10SM BKN015 BKN045 BKN250 21/16 A2987 RMK AO2 T02060161
KDFW 211553Z 18020G26KT 10SM BKN018 BKN045 BKN250 21/16 A2987 RMK AO2 PK WND 19028/1541 SLP109 T02110161
KDFW 211653Z 19020G30KT 10SM BKN025 OVC033 22/16 A2986 RMK AO2 PK WND 20030/1649 SLP106 T02220161
KDFW 211753Z 19021G29KT 10SM FEW025 BKN043 OVC055 23/16 A2984 RMK AO2 PK WND 18035/1726 SLP097 T02330161 10233 20178 58011
KDFW 211853Z 21019G25KT 10SM -RA BKN032 OVC044 23/16 A2980 RMK AO2 PK WND 21034/1801 RAB50 SLP086 P0000 T02280161
KDFW 211953Z 20019KT 10SM FEW032 SCT044 BKN075 BKN250 23/16 A2976 RMK AO2 PK WND 21030/1904 LTG DSNT SE RAE00 SLP072 P0000 T02330156
KDFW 212053Z 20020KT 10SM BKN038 BKN100 24/16 A2972 RMK AO2 PK WND 20027/2050 LTG DSNT E SLP058 CB DSNT E MOV NE 60000 T02440156 58038
KDFW 212153Z COR 18017G28KT 10SM VCTS SCT028 BKN039 OVC240 23/17 A2970 RMK AO2 PK WND 19029/2107 LTG DSNT SW-N SLP050 OCNL LTGCG DSNT SW LN SHRA DSNT SW-NW-N MOV NE T02280167